SASJ/JUJ METAR and TAF weather

Enter ICAO airport designator
Station Type Date Time Source
SASJ METAR 2020/07/10 17:00 UTC NOAA

SASJ 101700Z 14004KT CAVOK 24/03 Q1005


Station Type Date Time Source
SASJ Decoded METAR 2020/07/10 17:00 UTC NOAA

Jujuy Aerodrome, Argentina (SASJ) 24-23S 065-05W 905M
Jul 10, 2020 - 01:00 PM EDT / 2020.07.10 1700 UTC
Wind: from the SE (140 degrees) at 5 MPH (4 KT):0
Visibility: greater than 7 mile(s):0
Temperature: 75 F (24 C)
Dew Point: 37 F (3 C)
Relative Humidity: 25%
Pressure (altimeter): 29.68 in. Hg (1005 hPa)
ob: SASJ 101700Z 14004KT CAVOK 24/03 Q1005
cycle: 17

Station Type Date Time Source
SASJ TAF 2020/07/10 18:11 UTC NOAA

TAF SASJ 101700Z 1018/1118 VRB03KT CAVOK TX23/1018Z TN03/1110Z
BECMG 1112/1115 14010KT

Example: see airport list